sensor_id;sensor_type;location;lat;lon;timestamp;temperature;humidity
38582;DHT22;24349;53.720;10.014;2023-07-29T00:01:30;18.10;99.90
38582;DHT22;24349;53.720;10.014;2023-07-29T00:03:56;18.10;99.90
38582;DHT22;24349;53.720;10.014;2023-07-29T00:06:22;18.00;99.90
38582;DHT22;24349;53.720;10.014;2023-07-29T00:08:47;17.90;99.90
38582;DHT22;24349;53.720;10.014;2023-07-29T00:11:13;17.80;99.90
38582;DHT22;24349;53.720;10.014;2023-07-29T00:13:38;17.80;99.90
38582;DHT22;24349;53.720;10.014;2023-07-29T00:16:04;17.60;99.90
38582;DHT22;24349;53.720;10.014;2023-07-29T00:18:30;17.60;99.90
38582;DHT22;24349;53.720;10.014;2023-07-29T00:20:56;17.50;99.90
38582;DHT22;24349;53.720;10.014;2023-07-29T00:23:23;17.50;99.90
38582;DHT22;24349;53.720;10.014;2023-07-29T00:25:48;17.50;99.90
38582;DHT22;24349;53.720;10.014;2023-07-29T00:28:14;17.40;99.90
38582;DHT22;24349;53.720;10.014;2023-07-29T00:30:39;17.40;99.90
38582;DHT22;24349;53.720;10.014;2023-07-29T00:33:05;17.40;99.90
38582;DHT22;24349;53.720;10.014;2023-07-29T00:35:31;17.40;99.90
38582;DHT22;24349;53.720;10.014;2023-07-29T00:37:56;17.50;99.90
38582;DHT22;24349;53.720;10.014;2023-07-29T00:40:22;17.60;99.90
38582;DHT22;24349;53.720;10.014;2023-07-29T00:42:49;17.70;99.90
38582;DHT22;24349;53.720;10.014;2023-07-29T00:45:15;17.70;99.90
38582;DHT22;24349;53.720;10.014;2023-07-29T00:47:42;17.70;99.90
38582;DHT22;24349;53.720;10.014;2023-07-29T00:50:09;17.60;99.90
38582;DHT22;24349;53.720;10.014;2023-07-29T00:52:36;17.60;99.90
38582;DHT22;24349;53.720;10.014;2023-07-29T00:55:03;17.60;99.90
38582;DHT22;24349;53.720;10.014;2023-07-29T00:57:30;17.60;99.90
38582;DHT22;24349;53.720;10.014;2023-07-29T00:59:56;17.60;99.90
38582;DHT22;24349;53.720;10.014;2023-07-29T01:02:22;17.50;99.90
38582;DHT22;24349;53.720;10.014;2023-07-29T01:04:54;17.50;99.90
38582;DHT22;24349;53.720;10.014;2023-07-29T01:07:26;17.60;99.90
38582;DHT22;24349;53.720;10.014;2023-07-29T01:16:00;17.30;99.90
38582;DHT22;24349;53.720;10.014;2023-07-29T01:18:27;17.40;99.90
38582;DHT22;24349;53.720;10.014;2023-07-29T01:20:57;17.50;99.90
38582;DHT22;24349;53.720;10.014;2023-07-29T01:23:31;17.60;99.90
38582;DHT22;24349;53.720;10.014;2023-07-29T01:25:57;17.70;99.90
38582;DHT22;24349;53.720;10.014;2023-07-29T01:28:23;17.70;99.90
38582;DHT22;24349;53.720;10.014;2023-07-29T01:30:51;17.70;99.90
38582;DHT22;24349;53.720;10.014;2023-07-29T01:33:26;17.60;99.90
38582;DHT22;24349;53.720;10.014;2023-07-29T01:36:11;17.60;99.90
38582;DHT22;24349;53.720;10.014;2023-07-29T01:38:41;17.60;99.90
38582;DHT22;24349;53.720;10.014;2023-07-29T01:41:08;17.60;99.90
38582;DHT22;24349;53.720;10.014;2023-07-29T01:43:34;17.70;99.90
38582;DHT22;24349;53.720;10.014;2023-07-29T01:46:04;17.80;99.90
38582;DHT22;24349;53.720;10.014;2023-07-29T01:48:30;17.90;99.90
38582;DHT22;24349;53.720;10.014;2023-07-29T01:50:57;17.90;99.90
38582;DHT22;24349;53.720;10.014;2023-07-29T01:53:23;17.90;99.90
38582;DHT22;24349;53.720;10.014;2023-07-29T01:55:49;17.80;99.90
38582;DHT22;24349;53.720;10.014;2023-07-29T01:58:14;17.70;99.90
38582;DHT22;24349;53.720;10.014;2023-07-29T02:00:40;17.70;99.90
38582;DHT22;24349;53.720;10.014;2023-07-29T02:03:06;17.70;99.90
38582;DHT22;24349;53.720;10.014;2023-07-29T02:05:31;17.90;99.90
38582;DHT22;24349;53.720;10.014;2023-07-29T02:07:57;18.00;99.90
38582;DHT22;24349;53.720;10.014;2023-07-29T02:10:23;18.00;99.90
38582;DHT22;24349;53.720;10.014;2023-07-29T02:12:48;18.00;99.90
38582;DHT22;24349;53.720;10.014;2023-07-29T02:15:14;17.90;99.90
38582;DHT22;24349;53.720;10.014;2023-07-29T02:17:42;17.90;99.90
38582;DHT22;24349;53.720;10.014;2023-07-29T02:20:08;17.90;99.90
38582;DHT22;24349;53.720;10.014;2023-07-29T02:22:36;17.90;99.90
38582;DHT22;24349;53.720;10.014;2023-07-29T02:25:02;17.90;99.90
38582;DHT22;24349;53.720;10.014;2023-07-29T02:27:28;18.00;99.90
38582;DHT22;24349;53.720;10.014;2023-07-29T02:29:54;18.10;99.90
38582;DHT22;24349;53.720;10.014;2023-07-29T02:32:20;18.10;99.90
38582;DHT22;24349;53.720;10.014;2023-07-29T02:34:46;18.00;99.90
38582;DHT22;24349;53.720;10.014;2023-07-29T02:37:11;18.00;99.90
38582;DHT22;24349;53.720;10.014;2023-07-29T02:39:37;18.00;99.90
38582;DHT22;24349;53.720;10.014;2023-07-29T02:42:03;18.10;99.90
38582;DHT22;24349;53.720;10.014;2023-07-29T02:44:29;18.10;99.90
38582;DHT22;24349;53.720;10.014;2023-07-29T02:46:54;18.20;99.90
38582;DHT22;24349;53.720;10.014;2023-07-29T02:49:21;18.30;99.90
38582;DHT22;24349;53.720;10.014;2023-07-29T02:51:47;18.30;99.90
38582;DHT22;24349;53.720;10.014;2023-07-29T02:54:13;18.40;99.90
38582;DHT22;24349;53.720;10.014;2023-07-29T02:56:38;18.40;99.90
38582;DHT22;24349;53.720;10.014;2023-07-29T02:59:04;18.40;99.90
38582;DHT22;24349;53.720;10.014;2023-07-29T03:01:30;18.40;99.90
38582;DHT22;24349;53.720;10.014;2023-07-29T03:03:56;18.40;99.90
38582;DHT22;24349;53.720;10.014;2023-07-29T03:06:21;18.40;99.90
38582;DHT22;24349;53.720;10.014;2023-07-29T03:08:47;18.30;99.90
38582;DHT22;24349;53.720;10.014;2023-07-29T03:11:14;18.20;99.90
38582;DHT22;24349;53.720;10.014;2023-07-29T03:13:40;18.20;99.90
38582;DHT22;24349;53.720;10.014;2023-07-29T03:16:14;18.20;99.90
38582;DHT22;24349;53.720;10.014;2023-07-29T03:18:41;18.20;99.90
38582;DHT22;24349;53.720;10.014;2023-07-29T03:21:08;18.10;99.90
38582;DHT22;24349;53.720;10.014;2023-07-29T03:23:33;18.10;99.90
38582;DHT22;24349;53.720;10.014;2023-07-29T03:26:00;18.00;99.90
38582;DHT22;24349;53.720;10.014;2023-07-29T03:28:31;18.10;99.90
38582;DHT22;24349;53.720;10.014;2023-07-29T03:30:58;18.10;99.90
38582;DHT22;24349;53.720;10.014;2023-07-29T03:33:24;18.10;99.90
38582;DHT22;24349;53.720;10.014;2023-07-29T03:35:51;18.20;99.90
38582;DHT22;24349;53.720;10.014;2023-07-29T03:38:16;18.20;99.90
38582;DHT22;24349;53.720;10.014;2023-07-29T03:40:42;18.30;99.90
38582;DHT22;24349;53.720;10.014;2023-07-29T03:43:08;18.30;99.90
38582;DHT22;24349;53.720;10.014;2023-07-29T03:45:35;18.30;99.90
38582;DHT22;24349;53.720;10.014;2023-07-29T03:48:01;18.30;99.90
38582;DHT22;24349;53.720;10.014;2023-07-29T03:50:27;18.30;99.90
38582;DHT22;24349;53.720;10.014;2023-07-29T03:52:53;18.30;99.90
38582;DHT22;24349;53.720;10.014;2023-07-29T03:55:18;18.40;99.90
38582;DHT22;24349;53.720;10.014;2023-07-29T03:57:44;18.40;99.90
38582;DHT22;24349;53.720;10.014;2023-07-29T04:00:10;18.30;99.90
38582;DHT22;24349;53.720;10.014;2023-07-29T04:02:36;18.30;99.90
38582;DHT22;24349;53.720;10.014;2023-07-29T04:05:05;18.30;99.90
38582;DHT22;24349;53.720;10.014;2023-07-29T04:07:34;18.40;99.90
38582;DHT22;24349;53.720;10.014;2023-07-29T04:10:00;18.30;99.90
38582;DHT22;24349;53.720;10.014;2023-07-29T04:12:26;18.30;99.90
38582;DHT22;24349;53.720;10.014;2023-07-29T04:14:52;18.40;99.90
38582;DHT22;24349;53.720;10.014;2023-07-29T04:17:17;18.40;99.90
38582;DHT22;24349;53.720;10.014;2023-07-29T04:19:43;18.40;99.90
38582;DHT22;24349;53.720;10.014;2023-07-29T04:22:08;18.40;99.90
38582;DHT22;24349;53.720;10.014;2023-07-29T04:24:34;18.40;99.90
38582;DHT22;24349;53.720;10.014;2023-07-29T04:27:00;18.50;99.90
38582;DHT22;24349;53.720;10.014;2023-07-29T04:29:25;18.50;99.90
38582;DHT22;24349;53.720;10.014;2023-07-29T04:31:51;18.50;99.90
38582;DHT22;24349;53.720;10.014;2023-07-29T04:34:18;18.50;99.90
38582;DHT22;24349;53.720;10.014;2023-07-29T04:36:47;18.50;99.90
38582;DHT22;24349;53.720;10.014;2023-07-29T04:39:13;18.60;99.90
38582;DHT22;24349;53.720;10.014;2023-07-29T04:41:38;18.70;99.90
38582;DHT22;24349;53.720;10.014;2023-07-29T04:44:04;18.70;99.90
38582;DHT22;24349;53.720;10.014;2023-07-29T04:46:30;18.70;99.90
38582;DHT22;24349;53.720;10.014;2023-07-29T04:48:56;18.70;99.90
38582;DHT22;24349;53.720;10.014;2023-07-29T04:51:21;18.70;99.90
38582;DHT22;24349;53.720;10.014;2023-07-29T04:53:47;18.70;99.90
38582;DHT22;24349;53.720;10.014;2023-07-29T04:56:13;18.70;99.90
38582;DHT22;24349;53.720;10.014;2023-07-29T04:58:38;18.70;99.90
38582;DHT22;24349;53.720;10.014;2023-07-29T05:01:04;18.70;99.90
38582;DHT22;24349;53.720;10.014;2023-07-29T05:03:30;18.70;99.90
38582;DHT22;24349;53.720;10.014;2023-07-29T05:05:57;18.70;99.90
38582;DHT22;24349;53.720;10.014;2023-07-29T05:08:23;18.60;99.90
38582;DHT22;24349;53.720;10.014;2023-07-29T05:10:49;18.70;99.90
38582;DHT22;24349;53.720;10.014;2023-07-29T05:13:15;18.80;99.90
38582;DHT22;24349;53.720;10.014;2023-07-29T05:15:41;18.60;99.90
38582;DHT22;24349;53.720;10.014;2023-07-29T05:18:07;18.60;99.90
38582;DHT22;24349;53.720;10.014;2023-07-29T05:20:32;18.70;99.90
38582;DHT22;24349;53.720;10.014;2023-07-29T05:22:58;18.70;99.90
38582;DHT22;24349;53.720;10.014;2023-07-29T05:25:23;18.70;99.90
38582;DHT22;24349;53.720;10.014;2023-07-29T05:27:49;18.90;99.90
38582;DHT22;24349;53.720;10.014;2023-07-29T05:30:15;18.90;99.90
38582;DHT22;24349;53.720;10.014;2023-07-29T05:32:40;18.80;99.90
38582;DHT22;24349;53.720;10.014;2023-07-29T05:35:06;18.80;99.90
38582;DHT22;24349;53.720;10.014;2023-07-29T05:37:32;18.70;99.90
38582;DHT22;24349;53.720;10.014;2023-07-29T05:39:58;18.80;99.90
38582;DHT22;24349;53.720;10.014;2023-07-29T05:42:24;18.90;99.90
38582;DHT22;24349;53.720;10.014;2023-07-29T05:44:49;19.00;99.90
38582;DHT22;24349;53.720;10.014;2023-07-29T05:47:15;19.00;99.90
38582;DHT22;24349;53.720;10.014;2023-07-29T05:49:41;19.10;99.90
38582;DHT22;24349;53.720;10.014;2023-07-29T05:52:06;19.10;99.90
38582;DHT22;24349;53.720;10.014;2023-07-29T05:54:33;19.10;99.90
38582;DHT22;24349;53.720;10.014;2023-07-29T05:56:58;19.30;99.90
38582;DHT22;24349;53.720;10.014;2023-07-29T05:59:24;19.30;99.90
38582;DHT22;24349;53.720;10.014;2023-07-29T06:01:49;19.20;99.90
38582;DHT22;24349;53.720;10.014;2023-07-29T06:04:15;19.30;99.90
38582;DHT22;24349;53.720;10.014;2023-07-29T06:06:40;19.20;99.90
38582;DHT22;24349;53.720;10.014;2023-07-29T06:09:06;19.30;99.90
38582;DHT22;24349;53.720;10.014;2023-07-29T06:11:32;19.30;99.90
38582;DHT22;24349;53.720;10.014;2023-07-29T06:13:57;19.20;99.90
38582;DHT22;24349;53.720;10.014;2023-07-29T06:16:23;19.30;99.90
38582;DHT22;24349;53.720;10.014;2023-07-29T06:18:49;19.40;99.90
38582;DHT22;24349;53.720;10.014;2023-07-29T06:21:14;19.20;99.90
38582;DHT22;24349;53.720;10.014;2023-07-29T06:23:43;19.10;99.90
38582;DHT22;24349;53.720;10.014;2023-07-29T06:26:09;19.10;99.90
38582;DHT22;24349;53.720;10.014;2023-07-29T06:28:34;19.20;99.90
38582;DHT22;24349;53.720;10.014;2023-07-29T06:31:00;19.30;99.90
38582;DHT22;24349;53.720;10.014;2023-07-29T06:33:26;19.30;99.90
38582;DHT22;24349;53.720;10.014;2023-07-29T06:35:52;19.40;99.90
38582;DHT22;24349;53.720;10.014;2023-07-29T06:38:17;19.50;99.90
38582;DHT22;24349;53.720;10.014;2023-07-29T06:40:47;19.40;99.90
38582;DHT22;24349;53.720;10.014;2023-07-29T06:43:13;19.40;99.90
38582;DHT22;24349;53.720;10.014;2023-07-29T06:45:39;19.50;99.90
38582;DHT22;24349;53.720;10.014;2023-07-29T06:48:04;19.70;99.90
38582;DHT22;24349;53.720;10.014;2023-07-29T06:50:30;19.70;99.90
38582;DHT22;24349;53.720;10.014;2023-07-29T06:52:56;19.80;99.90
38582;DHT22;24349;53.720;10.014;2023-07-29T06:55:21;19.90;99.90
38582;DHT22;24349;53.720;10.014;2023-07-29T06:57:47;19.70;99.90
38582;DHT22;24349;53.720;10.014;2023-07-29T07:00:13;19.80;99.90
38582;DHT22;24349;53.720;10.014;2023-07-29T07:02:38;19.80;99.90
38582;DHT22;24349;53.720;10.014;2023-07-29T07:05:04;20.00;99.90
38582;DHT22;24349;53.720;10.014;2023-07-29T07:07:30;20.10;99.90
38582;DHT22;24349;53.720;10.014;2023-07-29T07:09:56;20.30;99.90
38582;DHT22;24349;53.720;10.014;2023-07-29T07:12:22;20.40;99.90
38582;DHT22;24349;53.720;10.014;2023-07-29T07:14:47;20.40;99.90
38582;DHT22;24349;53.720;10.014;2023-07-29T07:17:13;20.30;99.90
38582;DHT22;24349;53.720;10.014;2023-07-29T07:19:39;20.10;99.90
38582;DHT22;24349;53.720;10.014;2023-07-29T07:22:04;20.10;99.90
38582;DHT22;24349;53.720;10.014;2023-07-29T07:24:30;19.90;99.90
38582;DHT22;24349;53.720;10.014;2023-07-29T07:26:56;19.80;99.90
38582;DHT22;24349;53.720;10.014;2023-07-29T07:29:21;20.00;99.90
38582;DHT22;24349;53.720;10.014;2023-07-29T07:31:52;19.90;99.90
38582;DHT22;24349;53.720;10.014;2023-07-29T07:34:21;19.90;99.90
38582;DHT22;24349;53.720;10.014;2023-07-29T07:36:47;19.90;99.90
38582;DHT22;24349;53.720;10.014;2023-07-29T07:39:13;19.90;99.90
38582;DHT22;24349;53.720;10.014;2023-07-29T07:41:40;20.00;99.90
38582;DHT22;24349;53.720;10.014;2023-07-29T07:44:05;20.10;99.90
38582;DHT22;24349;53.720;10.014;2023-07-29T07:46:31;20.20;99.90
38582;DHT22;24349;53.720;10.014;2023-07-29T07:48:56;20.20;99.90
38582;DHT22;24349;53.720;10.014;2023-07-29T07:51:22;20.00;99.90
38582;DHT22;24349;53.720;10.014;2023-07-29T07:53:48;20.10;99.90
38582;DHT22;24349;53.720;10.014;2023-07-29T07:56:14;20.30;99.90
38582;DHT22;24349;53.720;10.014;2023-07-29T07:58:40;20.30;99.90
38582;DHT22;24349;53.720;10.014;2023-07-29T08:01:07;20.30;99.90
38582;DHT22;24349;53.720;10.014;2023-07-29T08:03:33;20.10;99.90
38582;DHT22;24349;53.720;10.014;2023-07-29T08:05:59;20.00;99.90
38582;DHT22;24349;53.720;10.014;2023-07-29T08:08:26;20.00;99.90
38582;DHT22;24349;53.720;10.014;2023-07-29T08:10:56;20.00;99.90
38582;DHT22;24349;53.720;10.014;2023-07-29T08:13:23;20.00;99.90
38582;DHT22;24349;53.720;10.014;2023-07-29T08:15:50;20.00;99.90
38582;DHT22;24349;53.720;10.014;2023-07-29T08:18:16;20.10;99.90
38582;DHT22;24349;53.720;10.014;2023-07-29T08:20:54;20.20;99.90
38582;DHT22;24349;53.720;10.014;2023-07-29T08:23:21;20.30;99.90
38582;DHT22;24349;53.720;10.014;2023-07-29T08:26:05;20.40;99.90
38582;DHT22;24349;53.720;10.014;2023-07-29T08:28:37;20.60;99.90
38582;DHT22;24349;53.720;10.014;2023-07-29T08:31:03;20.40;99.90
38582;DHT22;24349;53.720;10.014;2023-07-29T08:33:30;20.40;99.90
38582;DHT22;24349;53.720;10.014;2023-07-29T08:35:56;20.40;99.90
38582;DHT22;24349;53.720;10.014;2023-07-29T08:38:21;20.50;99.90
38582;DHT22;24349;53.720;10.014;2023-07-29T08:41:29;20.50;99.90
38582;DHT22;24349;53.720;10.014;2023-07-29T08:44:41;20.30;99.90
38582;DHT22;24349;53.720;10.014;2023-07-29T08:46:42;20.20;99.90
38582;DHT22;24349;53.720;10.014;2023-07-29T08:49:08;20.10;99.90
38582;DHT22;24349;53.720;10.014;2023-07-29T08:51:34;20.00;99.90
38582;DHT22;24349;53.720;10.014;2023-07-29T08:54:01;20.00;99.90
38582;DHT22;24349;53.720;10.014;2023-07-29T08:56:27;19.90;99.90
38582;DHT22;24349;53.720;10.014;2023-07-29T08:58:53;19.90;99.90
38582;DHT22;24349;53.720;10.014;2023-07-29T09:01:19;19.90;99.90
38582;DHT22;24349;53.720;10.014;2023-07-29T09:03:45;20.00;99.90
38582;DHT22;24349;53.720;10.014;2023-07-29T09:06:12;20.10;99.90
38582;DHT22;24349;53.720;10.014;2023-07-29T09:08:39;20.30;99.90
38582;DHT22;24349;53.720;10.014;2023-07-29T09:11:04;20.30;99.90
38582;DHT22;24349;53.720;10.014;2023-07-29T09:13:30;20.50;99.90
38582;DHT22;24349;53.720;10.014;2023-07-29T09:15:57;20.70;99.90
38582;DHT22;24349;53.720;10.014;2023-07-29T09:18:26;20.90;99.90
38582;DHT22;24349;53.720;10.014;2023-07-29T09:20:53;21.10;99.90
38582;DHT22;24349;53.720;10.014;2023-07-29T09:23:18;21.30;99.90
38582;DHT22;24349;53.720;10.014;2023-07-29T09:25:46;21.40;99.90
38582;DHT22;24349;53.720;10.014;2023-07-29T09:28:14;21.10;99.90
38582;DHT22;24349;53.720;10.014;2023-07-29T09:30:42;21.10;99.90
38582;DHT22;24349;53.720;10.014;2023-07-29T09:33:09;21.20;99.90
38582;DHT22;24349;53.720;10.014;2023-07-29T09:35:35;21.10;99.90
38582;DHT22;24349;53.720;10.014;2023-07-29T09:38:05;21.20;99.90
38582;DHT22;24349;53.720;10.014;2023-07-29T09:40:36;21.10;99.90
38582;DHT22;24349;53.720;10.014;2023-07-29T09:43:03;21.40;99.90
38582;DHT22;24349;53.720;10.014;2023-07-29T09:45:29;21.50;99.90
38582;DHT22;24349;53.720;10.014;2023-07-29T09:47:57;21.60;99.90
38582;DHT22;24349;53.720;10.014;2023-07-29T09:50:24;21.70;99.90
38582;DHT22;24349;53.720;10.014;2023-07-29T09:52:51;22.20;99.90
38582;DHT22;24349;53.720;10.014;2023-07-29T09:55:18;22.40;99.90
38582;DHT22;24349;53.720;10.014;2023-07-29T09:57:45;23.00;99.90
38582;DHT22;24349;53.720;10.014;2023-07-29T10:00:11;23.50;99.90
38582;DHT22;24349;53.720;10.014;2023-07-29T10:02:43;23.60;99.90
38582;DHT22;24349;53.720;10.014;2023-07-29T10:05:10;23.90;99.90
38582;DHT22;24349;53.720;10.014;2023-07-29T10:07:39;23.40;99.90
38582;DHT22;24349;53.720;10.014;2023-07-29T10:10:06;23.80;99.90
38582;DHT22;24349;53.720;10.014;2023-07-29T10:12:33;24.30;99.90
38582;DHT22;24349;53.720;10.014;2023-07-29T10:15:02;24.10;99.90
38582;DHT22;24349;53.720;10.014;2023-07-29T10:17:28;24.20;99.90
38582;DHT22;24349;53.720;10.014;2023-07-29T10:19:56;24.10;99.90
38582;DHT22;24349;53.720;10.014;2023-07-29T10:22:25;23.80;99.90
38582;DHT22;24349;53.720;10.014;2023-07-29T10:24:56;23.90;99.90
38582;DHT22;24349;53.720;10.014;2023-07-29T10:27:25;24.40;99.90
38582;DHT22;24349;53.720;10.014;2023-07-29T10:29:54;24.30;99.90
38582;DHT22;24349;53.720;10.014;2023-07-29T10:32:25;23.90;99.90
38582;DHT22;24349;53.720;10.014;2023-07-29T10:34:51;24.10;99.90
38582;DHT22;24349;53.720;10.014;2023-07-29T10:37:17;24.50;99.90
38582;DHT22;24349;53.720;10.014;2023-07-29T10:39:53;24.40;99.90
38582;DHT22;24349;53.720;10.014;2023-07-29T10:42:19;24.20;99.90
38582;DHT22;24349;53.720;10.014;2023-07-29T10:44:49;24.00;99.90
38582;DHT22;24349;53.720;10.014;2023-07-29T10:47:16;24.10;99.90
38582;DHT22;24349;53.720;10.014;2023-07-29T10:49:46;23.90;99.90
38582;DHT22;24349;53.720;10.014;2023-07-29T10:52:17;23.80;99.90
38582;DHT22;24349;53.720;10.014;2023-07-29T10:54:52;23.60;99.90
38582;DHT22;24349;53.720;10.014;2023-07-29T10:57:38;23.30;99.90
38582;DHT22;24349;53.720;10.014;2023-07-29T11:00:06;23.10;99.90
38582;DHT22;24349;53.720;10.014;2023-07-29T11:02:35;23.10;99.90
38582;DHT22;24349;53.720;10.014;2023-07-29T11:05:26;23.20;99.90
38582;DHT22;24349;53.720;10.014;2023-07-29T11:07:51;23.20;99.90
38582;DHT22;24349;53.720;10.014;2023-07-29T11:10:17;22.90;99.90
38582;DHT22;24349;53.720;10.014;2023-07-29T11:12:50;22.80;99.90
38582;DHT22;24349;53.720;10.014;2023-07-29T11:15:25;22.70;99.90
38582;DHT22;24349;53.720;10.014;2023-07-29T11:20:22;23.10;99.90
38582;DHT22;24349;53.720;10.014;2023-07-29T11:22:48;23.50;99.90
38582;DHT22;24349;53.720;10.014;2023-07-29T11:25:15;24.20;99.90
38582;DHT22;24349;53.720;10.014;2023-07-29T11:27:41;24.30;99.90
38582;DHT22;24349;53.720;10.014;2023-07-29T11:30:12;24.40;99.90
38582;DHT22;24349;53.720;10.014;2023-07-29T11:32:39;24.70;99.90
38582;DHT22;24349;53.720;10.014;2023-07-29T11:35:10;25.20;99.90
38582;DHT22;24349;53.720;10.014;2023-07-29T11:37:37;25.40;99.90
38582;DHT22;24349;53.720;10.014;2023-07-29T11:40:04;25.80;99.90
38582;DHT22;24349;53.720;10.014;2023-07-29T11:42:34;25.90;99.90
38582;DHT22;24349;53.720;10.014;2023-07-29T11:45:01;25.30;99.90
38582;DHT22;24349;53.720;10.014;2023-07-29T11:47:27;25.30;99.90
38582;DHT22;24349;53.720;10.014;2023-07-29T11:49:53;25.40;99.90
38582;DHT22;24349;53.720;10.014;2023-07-29T11:52:19;25.20;99.90
38582;DHT22;24349;53.720;10.014;2023-07-29T11:54:48;25.30;99.90
38582;DHT22;24349;53.720;10.014;2023-07-29T11:57:14;25.00;99.90
38582;DHT22;24349;53.720;10.014;2023-07-29T11:59:41;25.10;99.90
38582;DHT22;24349;53.720;10.014;2023-07-29T12:02:19;25.50;99.90
38582;DHT22;24349;53.720;10.014;2023-07-29T12:04:46;25.50;99.90
38582;DHT22;24349;53.720;10.014;2023-07-29T12:07:13;25.70;99.90
38582;DHT22;24349;53.720;10.014;2023-07-29T12:09:40;25.80;99.90
38582;DHT22;24349;53.720;10.014;2023-07-29T12:12:07;25.80;99.90
38582;DHT22;24349;53.720;10.014;2023-07-29T12:14:33;25.90;99.90
38582;DHT22;24349;53.720;10.014;2023-07-29T12:17:03;25.60;99.90
38582;DHT22;24349;53.720;10.014;2023-07-29T12:19:33;26.10;99.90
38582;DHT22;24349;53.720;10.014;2023-07-29T12:22:01;26.40;99.90
38582;DHT22;24349;53.720;10.014;2023-07-29T12:24:27;25.90;99.90
38582;DHT22;24349;53.720;10.014;2023-07-29T12:26:54;25.60;99.90
38582;DHT22;24349;53.720;10.014;2023-07-29T12:29:20;25.70;99.90
38582;DHT22;24349;53.720;10.014;2023-07-29T12:31:46;26.50;99.90
38582;DHT22;24349;53.720;10.014;2023-07-29T12:34:21;26.50;99.90
38582;DHT22;24349;53.720;10.014;2023-07-29T12:36:49;26.40;99.90
38582;DHT22;24349;53.720;10.014;2023-07-29T12:41:51;25.70;99.90
38582;DHT22;24349;53.720;10.014;2023-07-29T12:44:17;25.70;99.90
38582;DHT22;24349;53.720;10.014;2023-07-29T12:46:43;25.60;99.90
38582;DHT22;24349;53.720;10.014;2023-07-29T12:49:09;25.50;99.90
38582;DHT22;24349;53.720;10.014;2023-07-29T12:51:34;25.60;99.90
38582;DHT22;24349;53.720;10.014;2023-07-29T12:54:01;25.30;99.90
38582;DHT22;24349;53.720;10.014;2023-07-29T12:56:28;25.40;99.90
38582;DHT22;24349;53.720;10.014;2023-07-29T12:58:55;25.40;99.90
38582;DHT22;24349;53.720;10.014;2023-07-29T13:01:20;25.40;99.90
38582;DHT22;24349;53.720;10.014;2023-07-29T13:03:47;25.20;99.90
38582;DHT22;24349;53.720;10.014;2023-07-29T13:06:13;25.20;99.90
38582;DHT22;24349;53.720;10.014;2023-07-29T13:08:38;25.90;99.90
38582;DHT22;24349;53.720;10.014;2023-07-29T13:11:04;26.50;99.90
38582;DHT22;24349;53.720;10.014;2023-07-29T13:13:31;26.60;99.90
38582;DHT22;24349;53.720;10.014;2023-07-29T13:15:57;26.20;99.90
38582;DHT22;24349;53.720;10.014;2023-07-29T13:18:23;25.80;99.90
38582;DHT22;24349;53.720;10.014;2023-07-29T13:20:48;25.70;99.90
38582;DHT22;24349;53.720;10.014;2023-07-29T13:23:15;25.70;99.90
38582;DHT22;24349;53.720;10.014;2023-07-29T13:25:41;26.30;99.90
38582;DHT22;24349;53.720;10.014;2023-07-29T13:28:08;27.00;99.90
38582;DHT22;24349;53.720;10.014;2023-07-29T13:30:34;26.80;99.90
38582;DHT22;24349;53.720;10.014;2023-07-29T13:32:59;26.80;99.90
38582;DHT22;24349;53.720;10.014;2023-07-29T13:35:25;26.20;99.90
38582;DHT22;24349;53.720;10.014;2023-07-29T13:37:51;25.80;99.90
38582;DHT22;24349;53.720;10.014;2023-07-29T13:40:16;25.30;99.90
38582;DHT22;24349;53.720;10.014;2023-07-29T13:42:42;26.40;99.90
38582;DHT22;24349;53.720;10.014;2023-07-29T13:45:08;27.40;99.90
38582;DHT22;24349;53.720;10.014;2023-07-29T13:47:33;28.20;99.90
38582;DHT22;24349;53.720;10.014;2023-07-29T13:50:00;29.00;99.90
38582;DHT22;24349;53.720;10.014;2023-07-29T13:52:25;29.10;99.90
38582;DHT22;24349;53.720;10.014;2023-07-29T13:54:51;29.30;99.90
38582;DHT22;24349;53.720;10.014;2023-07-29T13:57:17;28.30;99.90
38582;DHT22;24349;53.720;10.014;2023-07-29T13:59:42;27.70;99.90
38582;DHT22;24349;53.720;10.014;2023-07-29T14:02:08;26.10;99.90
38582;DHT22;24349;53.720;10.014;2023-07-29T14:04:34;26.10;99.90
38582;DHT22;24349;53.720;10.014;2023-07-29T14:07:00;26.00;99.90
38582;DHT22;24349;53.720;10.014;2023-07-29T14:09:26;27.20;99.90
38582;DHT22;24349;53.720;10.014;2023-07-29T14:11:53;28.30;99.90
38582;DHT22;24349;53.720;10.014;2023-07-29T14:14:19;28.50;99.90
38582;DHT22;24349;53.720;10.014;2023-07-29T14:16:44;28.70;99.90
38582;DHT22;24349;53.720;10.014;2023-07-29T14:19:10;29.10;99.90
38582;DHT22;24349;53.720;10.014;2023-07-29T14:21:38;29.80;99.90
38582;DHT22;24349;53.720;10.014;2023-07-29T14:24:03;28.40;99.90
38582;DHT22;24349;53.720;10.014;2023-07-29T14:26:29;27.30;99.90
38582;DHT22;24349;53.720;10.014;2023-07-29T14:28:55;27.10;99.90
38582;DHT22;24349;53.720;10.014;2023-07-29T14:31:20;27.20;99.90
38582;DHT22;24349;53.720;10.014;2023-07-29T14:33:46;26.90;99.90
38582;DHT22;24349;53.720;10.014;2023-07-29T14:36:11;26.50;99.90
38582;DHT22;24349;53.720;10.014;2023-07-29T14:38:37;26.20;99.90
38582;DHT22;24349;53.720;10.014;2023-07-29T14:41:04;25.90;99.90
38582;DHT22;24349;53.720;10.014;2023-07-29T14:43:30;25.40;99.90
38582;DHT22;24349;53.720;10.014;2023-07-29T14:45:56;26.00;99.90
38582;DHT22;24349;53.720;10.014;2023-07-29T14:48:22;27.30;99.90
38582;DHT22;24349;53.720;10.014;2023-07-29T14:50:48;27.80;99.90
38582;DHT22;24349;53.720;10.014;2023-07-29T14:53:14;26.70;99.90
38582;DHT22;24349;53.720;10.014;2023-07-29T14:55:39;26.00;99.90
38582;DHT22;24349;53.720;10.014;2023-07-29T14:58:05;26.00;99.90
38582;DHT22;24349;53.720;10.014;2023-07-29T15:00:31;26.50;99.90
38582;DHT22;24349;53.720;10.014;2023-07-29T15:02:56;28.10;99.90
38582;DHT22;24349;53.720;10.014;2023-07-29T15:05:22;29.20;99.90
38582;DHT22;24349;53.720;10.014;2023-07-29T15:07:47;28.80;99.90
38582;DHT22;24349;53.720;10.014;2023-07-29T15:10:17;28.60;99.90
38582;DHT22;24349;53.720;10.014;2023-07-29T15:12:43;28.30;99.90
38582;DHT22;24349;53.720;10.014;2023-07-29T15:15:10;28.60;99.90
38582;DHT22;24349;53.720;10.014;2023-07-29T15:17:36;26.80;99.90
38582;DHT22;24349;53.720;10.014;2023-07-29T15:20:03;26.80;99.90
38582;DHT22;24349;53.720;10.014;2023-07-29T15:22:31;27.20;99.90
38582;DHT22;24349;53.720;10.014;2023-07-29T15:24:58;27.00;99.90